Big Rapids, Michigan
Current Conditions -  °F | °C
As of 6:55 PM on Saturday 25 Oct 2014 (Local Time) from KRQB Reporting Station
Clear Clear  
Wind Chill: 56°   Ceiling: Unl
Heat Index: 56°   Visibility: 10mi
Dew Point: 37°   Wind: 9mph
Humidity: 47%   Direction: 280°W
Pressure: 29.78"   Gusts: NA
Location:  43.7°N, 85.48°W
Report Text: KRQB 252255Z AUTO 28008KT 10SM CLR 14/03 A2978 RMK AO2 T01360025
Loading
Personal Weather Stations






























Interactive Weather Map
Tropical Storm Tracking
New forecast layout! Learn more

10-Day Weather Forecast

Advertisements
Track Severe Weather on mobile